Praesel, Texas
Current Conditions -  °F | °C
As of 11:55 AM on Friday 24 Oct 2014 (Local Time) from KT35 Reporting Station
Scattered Clouds Scattered Clouds  
Wind Chill: 74°   Ceiling: Unl
Heat Index: 74°   Visibility: 10mi
Dew Point: 58°   Wind: 0mph
Humidity: 57%   Direction: NA
Pressure: 30.19"   Gusts: NA
Location:  30.6499°N, 96.9973°W
Report Text: KT35 241655Z AUTO 00000KT 10SM SCT050 23/14 A3019 RMK AO2 T02310142
Loading
Personal Weather Stations






























Interactive Weather Map
Tropical Storm Tracking
New forecast layout! Learn more

10-Day Weather Forecast

Advertisements
Track Severe Weather on mobile